sensor_id;sensor_type;location;lat;lon;timestamp;P1;durP1;ratioP1;P2;durP2;ratioP2
6394;SDS011;3230;42.588;23.358;2023-06-22T00:00:54;9.10;;;5.70;;
6394;SDS011;3230;42.588;23.358;2023-06-22T00:03:21;11.90;;;6.37;;
6394;SDS011;3230;42.588;23.358;2023-06-22T00:05:48;11.53;;;6.13;;
6394;SDS011;3230;42.588;23.358;2023-06-22T00:08:14;10.80;;;5.70;;
6394;SDS011;3230;42.588;23.358;2023-06-22T00:10:40;10.43;;;6.17;;
6394;SDS011;3230;42.588;23.358;2023-06-22T00:13:06;9.07;;;5.53;;
6394;SDS011;3230;42.588;23.358;2023-06-22T00:15:33;10.73;;;5.90;;
6394;SDS011;3230;42.588;23.358;2023-06-22T00:17:59;9.73;;;5.73;;
6394;SDS011;3230;42.588;23.358;2023-06-22T00:20:26;11.10;;;5.87;;
6394;SDS011;3230;42.588;23.358;2023-06-22T00:22:53;12.33;;;6.37;;
6394;SDS011;3230;42.588;23.358;2023-06-22T00:25:19;10.47;;;5.50;;
6394;SDS011;3230;42.588;23.358;2023-06-22T00:27:45;9.63;;;5.73;;
6394;SDS011;3230;42.588;23.358;2023-06-22T00:30:10;11.50;;;6.07;;
6394;SDS011;3230;42.588;23.358;2023-06-22T00:32:36;11.87;;;6.50;;
6394;SDS011;3230;42.588;23.358;2023-06-22T00:35:02;11.23;;;6.27;;
6394;SDS011;3230;42.588;23.358;2023-06-22T00:37:27;9.87;;;6.17;;
6394;SDS011;3230;42.588;23.358;2023-06-22T00:39:54;10.90;;;6.63;;
6394;SDS011;3230;42.588;23.358;2023-06-22T00:42:22;11.17;;;5.77;;
6394;SDS011;3230;42.588;23.358;2023-06-22T00:44:48;12.60;;;6.20;;
6394;SDS011;3230;42.588;23.358;2023-06-22T00:47:14;10.00;;;6.10;;
6394;SDS011;3230;42.588;23.358;2023-06-22T00:49:42;11.20;;;6.50;;
6394;SDS011;3230;42.588;23.358;2023-06-22T00:52:08;12.80;;;6.33;;
6394;SDS011;3230;42.588;23.358;2023-06-22T00:54:38;10.27;;;6.10;;
6394;SDS011;3230;42.588;23.358;2023-06-22T00:57:10;11.00;;;6.50;;
6394;SDS011;3230;42.588;23.358;2023-06-22T00:59:37;9.03;;;5.50;;
6394;SDS011;3230;42.588;23.358;2023-06-22T01:02:04;11.77;;;5.97;;
6394;SDS011;3230;42.588;23.358;2023-06-22T01:04:36;13.57;;;6.70;;
6394;SDS011;3230;42.588;23.358;2023-06-22T01:10:07;11.70;;;6.13;;
6394;SDS011;3230;42.588;23.358;2023-06-22T01:12:40;12.50;;;6.97;;
6394;SDS011;3230;42.588;23.358;2023-06-22T01:15:11;11.07;;;6.07;;
6394;SDS011;3230;42.588;23.358;2023-06-22T01:17:44;11.70;;;6.83;;
6394;SDS011;3230;42.588;23.358;2023-06-22T01:20:10;11.33;;;6.30;;
6394;SDS011;3230;42.588;23.358;2023-06-22T01:22:46;11.00;;;6.13;;
6394;SDS011;3230;42.588;23.358;2023-06-22T01:25:28;12.50;;;5.60;;
6394;SDS011;3230;42.588;23.358;2023-06-22T01:28:09;10.77;;;5.70;;
6394;SDS011;3230;42.588;23.358;2023-06-22T01:30:43;12.17;;;6.73;;
6394;SDS011;3230;42.588;23.358;2023-06-22T01:33:11;12.43;;;7.03;;
6394;SDS011;3230;42.588;23.358;2023-06-22T01:35:38;11.93;;;6.70;;
6394;SDS011;3230;42.588;23.358;2023-06-22T01:38:05;10.73;;;6.03;;
6394;SDS011;3230;42.588;23.358;2023-06-22T01:40:32;12.50;;;6.80;;
6394;SDS011;3230;42.588;23.358;2023-06-22T01:43:00;11.40;;;7.00;;
6394;SDS011;3230;42.588;23.358;2023-06-22T01:45:26;11.57;;;6.80;;
6394;SDS011;3230;42.588;23.358;2023-06-22T01:47:52;11.50;;;6.27;;
6394;SDS011;3230;42.588;23.358;2023-06-22T01:50:19;12.90;;;7.40;;
6394;SDS011;3230;42.588;23.358;2023-06-22T01:52:45;11.50;;;7.07;;
6394;SDS011;3230;42.588;23.358;2023-06-22T01:55:10;14.60;;;6.93;;
6394;SDS011;3230;42.588;23.358;2023-06-22T01:57:36;11.40;;;6.73;;
6394;SDS011;3230;42.588;23.358;2023-06-22T02:00:04;15.50;;;6.47;;
6394;SDS011;3230;42.588;23.358;2023-06-22T02:05:26;15.00;;;7.70;;
6394;SDS011;3230;42.588;23.358;2023-06-22T02:10:29;13.30;;;7.00;;
6394;SDS011;3230;42.588;23.358;2023-06-22T02:12:57;12.07;;;6.30;;
6394;SDS011;3230;42.588;23.358;2023-06-22T02:15:24;13.93;;;6.93;;
6394;SDS011;3230;42.588;23.358;2023-06-22T02:17:50;15.10;;;7.00;;
6394;SDS011;3230;42.588;23.358;2023-06-22T02:20:16;15.83;;;7.10;;
6394;SDS011;3230;42.588;23.358;2023-06-22T02:22:41;14.93;;;7.23;;
6394;SDS011;3230;42.588;23.358;2023-06-22T02:25:07;14.20;;;6.87;;
6394;SDS011;3230;42.588;23.358;2023-06-22T02:27:33;16.27;;;7.60;;
6394;SDS011;3230;42.588;23.358;2023-06-22T02:29:58;12.40;;;6.87;;
6394;SDS011;3230;42.588;23.358;2023-06-22T02:32:23;12.60;;;6.80;;
6394;SDS011;3230;42.588;23.358;2023-06-22T02:34:49;18.13;;;7.10;;
6394;SDS011;3230;42.588;23.358;2023-06-22T02:37:14;15.17;;;7.83;;
6394;SDS011;3230;42.588;23.358;2023-06-22T02:39:40;14.40;;;7.90;;
6394;SDS011;3230;42.588;23.358;2023-06-22T02:42:05;14.90;;;7.40;;
6394;SDS011;3230;42.588;23.358;2023-06-22T02:44:31;17.43;;;7.83;;
6394;SDS011;3230;42.588;23.358;2023-06-22T02:46:56;18.50;;;8.00;;
6394;SDS011;3230;42.588;23.358;2023-06-22T02:49:22;17.83;;;7.70;;
6394;SDS011;3230;42.588;23.358;2023-06-22T02:51:48;16.47;;;8.37;;
6394;SDS011;3230;42.588;23.358;2023-06-22T02:54:13;14.23;;;7.03;;
6394;SDS011;3230;42.588;23.358;2023-06-22T02:56:39;19.77;;;8.60;;
6394;SDS011;3230;42.588;23.358;2023-06-22T02:59:06;18.10;;;8.10;;
6394;SDS011;3230;42.588;23.358;2023-06-22T03:01:31;17.50;;;8.50;;
6394;SDS011;3230;42.588;23.358;2023-06-22T03:04:05;16.97;;;8.10;;
6394;SDS011;3230;42.588;23.358;2023-06-22T03:06:32;15.50;;;7.80;;
6394;SDS011;3230;42.588;23.358;2023-06-22T03:08:59;15.50;;;7.63;;
6394;SDS011;3230;42.588;23.358;2023-06-22T03:11:26;18.27;;;8.93;;
6394;SDS011;3230;42.588;23.358;2023-06-22T03:13:52;18.93;;;7.93;;
6394;SDS011;3230;42.588;23.358;2023-06-22T03:16:18;15.80;;;7.93;;
6394;SDS011;3230;42.588;23.358;2023-06-22T03:18:44;19.10;;;8.80;;
6394;SDS011;3230;42.588;23.358;2023-06-22T03:21:10;17.80;;;8.13;;
6394;SDS011;3230;42.588;23.358;2023-06-22T03:23:35;19.00;;;8.57;;
6394;SDS011;3230;42.588;23.358;2023-06-22T03:26:01;19.20;;;7.80;;
6394;SDS011;3230;42.588;23.358;2023-06-22T03:28:27;21.13;;;8.40;;
6394;SDS011;3230;42.588;23.358;2023-06-22T03:30:52;18.60;;;8.80;;
6394;SDS011;3230;42.588;23.358;2023-06-22T03:33:18;21.10;;;8.27;;
6394;SDS011;3230;42.588;23.358;2023-06-22T03:35:43;15.00;;;7.53;;
6394;SDS011;3230;42.588;23.358;2023-06-22T03:38:09;16.00;;;8.20;;
6394;SDS011;3230;42.588;23.358;2023-06-22T03:40:34;15.33;;;6.83;;
6394;SDS011;3230;42.588;23.358;2023-06-22T03:42:59;28.23;;;7.20;;
6394;SDS011;3230;42.588;23.358;2023-06-22T03:45:25;14.40;;;7.20;;
6394;SDS011;3230;42.588;23.358;2023-06-22T03:47:50;16.03;;;7.43;;
6394;SDS011;3230;42.588;23.358;2023-06-22T03:50:16;17.33;;;8.00;;
6394;SDS011;3230;42.588;23.358;2023-06-22T03:52:41;17.27;;;7.83;;
6394;SDS011;3230;42.588;23.358;2023-06-22T03:55:07;16.80;;;7.87;;
6394;SDS011;3230;42.588;23.358;2023-06-22T03:57:33;16.50;;;8.27;;
6394;SDS011;3230;42.588;23.358;2023-06-22T03:59:58;13.67;;;7.33;;
6394;SDS011;3230;42.588;23.358;2023-06-22T04:02:24;16.73;;;7.47;;
6394;SDS011;3230;42.588;23.358;2023-06-22T04:04:50;15.40;;;7.40;;
6394;SDS011;3230;42.588;23.358;2023-06-22T04:07:16;14.80;;;7.60;;
6394;SDS011;3230;42.588;23.358;2023-06-22T04:09:43;15.83;;;7.57;;
6394;SDS011;3230;42.588;23.358;2023-06-22T04:12:08;18.27;;;7.87;;
6394;SDS011;3230;42.588;23.358;2023-06-22T04:14:34;17.20;;;7.63;;
6394;SDS011;3230;42.588;23.358;2023-06-22T04:17:01;16.57;;;8.03;;
6394;SDS011;3230;42.588;23.358;2023-06-22T04:19:26;15.43;;;8.53;;
6394;SDS011;3230;42.588;23.358;2023-06-22T04:21:52;13.63;;;8.23;;
6394;SDS011;3230;42.588;23.358;2023-06-22T04:24:18;14.73;;;7.67;;
6394;SDS011;3230;42.588;23.358;2023-06-22T04:26:43;13.70;;;7.83;;
6394;SDS011;3230;42.588;23.358;2023-06-22T04:29:10;14.87;;;8.10;;
6394;SDS011;3230;42.588;23.358;2023-06-22T04:31:36;14.27;;;7.90;;
6394;SDS011;3230;42.588;23.358;2023-06-22T04:34:02;16.20;;;8.47;;
6394;SDS011;3230;42.588;23.358;2023-06-22T04:36:35;30.77;;;9.30;;
6394;SDS011;3230;42.588;23.358;2023-06-22T04:39:04;15.40;;;8.57;;
6394;SDS011;3230;42.588;23.358;2023-06-22T04:41:30;14.00;;;7.53;;
6394;SDS011;3230;42.588;23.358;2023-06-22T04:44:02;13.73;;;7.73;;
6394;SDS011;3230;42.588;23.358;2023-06-22T04:46:30;13.60;;;8.40;;
6394;SDS011;3230;42.588;23.358;2023-06-22T04:48:55;15.80;;;8.43;;
6394;SDS011;3230;42.588;23.358;2023-06-22T04:51:20;15.60;;;7.80;;
6394;SDS011;3230;42.588;23.358;2023-06-22T04:53:46;11.93;;;7.47;;
6394;SDS011;3230;42.588;23.358;2023-06-22T04:56:12;13.63;;;8.23;;
6394;SDS011;3230;42.588;23.358;2023-06-22T04:58:37;13.60;;;8.10;;
6394;SDS011;3230;42.588;23.358;2023-06-22T05:01:02;12.30;;;8.27;;
6394;SDS011;3230;42.588;23.358;2023-06-22T05:03:28;13.60;;;8.00;;
6394;SDS011;3230;42.588;23.358;2023-06-22T05:05:54;22.50;;;12.10;;
6394;SDS011;3230;42.588;23.358;2023-06-22T05:08:19;19.43;;;8.43;;
6394;SDS011;3230;42.588;23.358;2023-06-22T05:10:45;9.67;;;7.90;;
6394;SDS011;3230;42.588;23.358;2023-06-22T05:13:10;8.63;;;7.17;;
6394;SDS011;3230;42.588;23.358;2023-06-22T05:15:35;11.30;;;6.97;;
6394;SDS011;3230;42.588;23.358;2023-06-22T05:18:05;7.47;;;6.43;;
6394;SDS011;3230;42.588;23.358;2023-06-22T05:20:30;8.43;;;7.50;;
6394;SDS011;3230;42.588;23.358;2023-06-22T05:22:56;7.70;;;6.50;;
6394;SDS011;3230;42.588;23.358;2023-06-22T05:25:21;10.00;;;7.27;;
6394;SDS011;3230;42.588;23.358;2023-06-22T05:27:49;9.90;;;6.77;;
6394;SDS011;3230;42.588;23.358;2023-06-22T05:30:16;10.07;;;6.87;;
6394;SDS011;3230;42.588;23.358;2023-06-22T05:32:43;9.13;;;6.57;;
6394;SDS011;3230;42.588;23.358;2023-06-22T05:35:09;12.57;;;7.00;;
6394;SDS011;3230;42.588;23.358;2023-06-22T05:37:34;12.10;;;6.97;;
6394;SDS011;3230;42.588;23.358;2023-06-22T05:40:00;9.63;;;5.87;;
6394;SDS011;3230;42.588;23.358;2023-06-22T05:42:25;12.70;;;6.47;;
6394;SDS011;3230;42.588;23.358;2023-06-22T05:44:51;10.30;;;6.70;;
6394;SDS011;3230;42.588;23.358;2023-06-22T05:47:18;12.20;;;8.13;;
6394;SDS011;3230;42.588;23.358;2023-06-22T05:49:43;17.43;;;8.43;;
6394;SDS011;3230;42.588;23.358;2023-06-22T05:52:08;13.53;;;8.83;;
6394;SDS011;3230;42.588;23.358;2023-06-22T05:54:34;16.43;;;9.13;;
6394;SDS011;3230;42.588;23.358;2023-06-22T05:57:00;10.93;;;8.47;;
6394;SDS011;3230;42.588;23.358;2023-06-22T05:59:26;12.87;;;9.20;;
6394;SDS011;3230;42.588;23.358;2023-06-22T06:01:51;11.60;;;8.10;;
6394;SDS011;3230;42.588;23.358;2023-06-22T06:04:17;12.67;;;9.50;;
6394;SDS011;3230;42.588;23.358;2023-06-22T06:06:43;11.50;;;8.70;;
6394;SDS011;3230;42.588;23.358;2023-06-22T06:09:09;11.93;;;9.20;;
6394;SDS011;3230;42.588;23.358;2023-06-22T06:11:36;12.47;;;8.90;;
6394;SDS011;3230;42.588;23.358;2023-06-22T06:14:01;12.77;;;9.00;;
6394;SDS011;3230;42.588;23.358;2023-06-22T06:16:27;14.80;;;8.87;;
6394;SDS011;3230;42.588;23.358;2023-06-22T06:18:52;19.60;;;8.30;;
6394;SDS011;3230;42.588;23.358;2023-06-22T06:21:19;23.27;;;9.17;;
6394;SDS011;3230;42.588;23.358;2023-06-22T06:23:45;19.83;;;10.37;;
6394;SDS011;3230;42.588;23.358;2023-06-22T06:26:10;19.10;;;9.57;;
6394;SDS011;3230;42.588;23.358;2023-06-22T06:28:36;22.90;;;10.00;;
6394;SDS011;3230;42.588;23.358;2023-06-22T06:31:01;20.77;;;9.23;;
6394;SDS011;3230;42.588;23.358;2023-06-22T06:33:27;19.80;;;8.47;;
6394;SDS011;3230;42.588;23.358;2023-06-22T06:35:52;17.73;;;8.27;;
6394;SDS011;3230;42.588;23.358;2023-06-22T06:38:18;21.87;;;8.90;;
6394;SDS011;3230;42.588;23.358;2023-06-22T06:40:43;22.03;;;8.63;;
6394;SDS011;3230;42.588;23.358;2023-06-22T06:43:10;20.60;;;8.83;;
6394;SDS011;3230;42.588;23.358;2023-06-22T06:45:35;20.53;;;8.67;;
6394;SDS011;3230;42.588;23.358;2023-06-22T06:48:01;18.60;;;8.87;;
6394;SDS011;3230;42.588;23.358;2023-06-22T06:50:27;17.07;;;7.90;;
6394;SDS011;3230;42.588;23.358;2023-06-22T06:52:53;18.77;;;8.40;;
6394;SDS011;3230;42.588;23.358;2023-06-22T06:55:19;18.43;;;8.23;;
6394;SDS011;3230;42.588;23.358;2023-06-22T06:57:45;16.60;;;7.63;;
6394;SDS011;3230;42.588;23.358;2023-06-22T07:00:13;17.73;;;7.67;;
6394;SDS011;3230;42.588;23.358;2023-06-22T07:02:40;17.17;;;7.80;;
6394;SDS011;3230;42.588;23.358;2023-06-22T07:05:07;17.80;;;8.17;;
6394;SDS011;3230;42.588;23.358;2023-06-22T07:07:34;22.83;;;8.50;;
6394;SDS011;3230;42.588;23.358;2023-06-22T07:10:00;21.40;;;8.60;;
6394;SDS011;3230;42.588;23.358;2023-06-22T07:12:26;19.27;;;8.00;;
6394;SDS011;3230;42.588;23.358;2023-06-22T07:14:52;18.87;;;7.97;;
6394;SDS011;3230;42.588;23.358;2023-06-22T07:17:18;19.07;;;8.60;;
6394;SDS011;3230;42.588;23.358;2023-06-22T07:19:43;21.13;;;8.50;;
6394;SDS011;3230;42.588;23.358;2023-06-22T07:22:08;19.20;;;9.07;;
6394;SDS011;3230;42.588;23.358;2023-06-22T07:24:34;22.83;;;8.47;;
6394;SDS011;3230;42.588;23.358;2023-06-22T07:26:59;20.63;;;8.50;;
6394;SDS011;3230;42.588;23.358;2023-06-22T07:29:25;19.23;;;7.97;;
6394;SDS011;3230;42.588;23.358;2023-06-22T07:31:52;19.73;;;8.70;;
6394;SDS011;3230;42.588;23.358;2023-06-22T07:34:17;19.30;;;8.43;;
6394;SDS011;3230;42.588;23.358;2023-06-22T07:36:44;19.03;;;9.67;;
6394;SDS011;3230;42.588;23.358;2023-06-22T07:39:09;21.00;;;8.17;;
6394;SDS011;3230;42.588;23.358;2023-06-22T07:41:35;24.73;;;11.73;;
6394;SDS011;3230;42.588;23.358;2023-06-22T07:44:02;20.80;;;9.47;;
6394;SDS011;3230;42.588;23.358;2023-06-22T07:46:27;16.90;;;7.97;;
6394;SDS011;3230;42.588;23.358;2023-06-22T07:48:55;17.57;;;7.50;;
6394;SDS011;3230;42.588;23.358;2023-06-22T07:51:21;22.67;;;8.63;;
6394;SDS011;3230;42.588;23.358;2023-06-22T07:53:46;21.30;;;8.37;;
6394;SDS011;3230;42.588;23.358;2023-06-22T07:56:12;22.13;;;9.67;;
6394;SDS011;3230;42.588;23.358;2023-06-22T07:58:38;19.10;;;9.03;;
6394;SDS011;3230;42.588;23.358;2023-06-22T08:01:04;23.17;;;9.50;;
6394;SDS011;3230;42.588;23.358;2023-06-22T08:03:29;21.30;;;10.00;;
6394;SDS011;3230;42.588;23.358;2023-06-22T08:05:55;21.40;;;9.33;;
6394;SDS011;3230;42.588;23.358;2023-06-22T08:08:21;19.80;;;10.27;;
6394;SDS011;3230;42.588;23.358;2023-06-22T08:10:46;25.80;;;10.40;;
6394;SDS011;3230;42.588;23.358;2023-06-22T08:13:12;24.80;;;11.50;;
6394;SDS011;3230;42.588;23.358;2023-06-22T08:15:37;20.53;;;10.40;;
6394;SDS011;3230;42.588;23.358;2023-06-22T08:18:02;27.27;;;10.50;;
6394;SDS011;3230;42.588;23.358;2023-06-22T08:20:28;23.73;;;10.90;;
6394;SDS011;3230;42.588;23.358;2023-06-22T08:22:54;21.93;;;10.53;;
6394;SDS011;3230;42.588;23.358;2023-06-22T08:25:20;24.37;;;11.33;;
6394;SDS011;3230;42.588;23.358;2023-06-22T08:27:46;23.17;;;10.53;;
6394;SDS011;3230;42.588;23.358;2023-06-22T08:30:15;23.13;;;11.33;;
6394;SDS011;3230;42.588;23.358;2023-06-22T08:32:43;21.17;;;10.70;;
6394;SDS011;3230;42.588;23.358;2023-06-22T08:35:09;22.73;;;12.27;;
6394;SDS011;3230;42.588;23.358;2023-06-22T08:37:34;24.20;;;10.90;;
6394;SDS011;3230;42.588;23.358;2023-06-22T08:40:01;25.03;;;11.00;;
6394;SDS011;3230;42.588;23.358;2023-06-22T08:42:39;20.90;;;10.13;;
6394;SDS011;3230;42.588;23.358;2023-06-22T08:45:05;24.63;;;11.67;;
6394;SDS011;3230;42.588;23.358;2023-06-22T08:47:31;22.03;;;10.57;;
6394;SDS011;3230;42.588;23.358;2023-06-22T08:49:57;23.00;;;11.93;;
6394;SDS011;3230;42.588;23.358;2023-06-22T08:52:23;21.60;;;11.60;;
6394;SDS011;3230;42.588;23.358;2023-06-22T08:54:48;23.63;;;11.30;;
6394;SDS011;3230;42.588;23.358;2023-06-22T08:57:14;20.40;;;10.70;;
6394;SDS011;3230;42.588;23.358;2023-06-22T08:59:39;25.50;;;11.57;;
6394;SDS011;3230;42.588;23.358;2023-06-22T09:02:05;23.00;;;11.40;;
6394;SDS011;3230;42.588;23.358;2023-06-22T09:04:31;21.53;;;12.03;;
6394;SDS011;3230;42.588;23.358;2023-06-22T09:06:59;24.30;;;12.50;;
6394;SDS011;3230;42.588;23.358;2023-06-22T09:09:25;33.03;;;12.40;;
6394;SDS011;3230;42.588;23.358;2023-06-22T09:11:51;30.13;;;13.40;;
6394;SDS011;3230;42.588;23.358;2023-06-22T09:14:16;28.83;;;11.63;;
6394;SDS011;3230;42.588;23.358;2023-06-22T09:16:42;23.97;;;11.20;;
6394;SDS011;3230;42.588;23.358;2023-06-22T09:19:07;23.23;;;11.17;;
6394;SDS011;3230;42.588;23.358;2023-06-22T09:21:33;20.50;;;10.23;;
6394;SDS011;3230;42.588;23.358;2023-06-22T09:23:58;25.90;;;11.10;;
6394;SDS011;3230;42.588;23.358;2023-06-22T09:26:23;24.10;;;10.80;;
6394;SDS011;3230;42.588;23.358;2023-06-22T09:28:49;22.27;;;10.23;;
6394;SDS011;3230;42.588;23.358;2023-06-22T09:31:14;20.50;;;9.97;;
6394;SDS011;3230;42.588;23.358;2023-06-22T09:33:41;30.37;;;10.10;;
6394;SDS011;3230;42.588;23.358;2023-06-22T09:36:07;25.10;;;11.33;;
6394;SDS011;3230;42.588;23.358;2023-06-22T09:38:36;23.27;;;10.37;;
6394;SDS011;3230;42.588;23.358;2023-06-22T09:41:02;24.77;;;11.40;;
6394;SDS011;3230;42.588;23.358;2023-06-22T09:43:27;30.80;;;10.70;;
6394;SDS011;3230;42.588;23.358;2023-06-22T09:45:53;31.70;;;10.10;;
6394;SDS011;3230;42.588;23.358;2023-06-22T09:48:18;24.00;;;10.77;;
6394;SDS011;3230;42.588;23.358;2023-06-22T09:50:44;23.23;;;10.30;;
6394;SDS011;3230;42.588;23.358;2023-06-22T09:53:09;20.93;;;8.13;;
6394;SDS011;3230;42.588;23.358;2023-06-22T09:55:34;23.00;;;9.73;;
6394;SDS011;3230;42.588;23.358;2023-06-22T09:58:00;21.17;;;10.13;;
6394;SDS011;3230;42.588;23.358;2023-06-22T10:00:25;24.37;;;9.03;;
6394;SDS011;3230;42.588;23.358;2023-06-22T10:02:51;22.77;;;9.73;;
6394;SDS011;3230;42.588;23.358;2023-06-22T10:05:17;22.53;;;9.30;;
6394;SDS011;3230;42.588;23.358;2023-06-22T10:07:43;21.87;;;7.67;;
6394;SDS011;3230;42.588;23.358;2023-06-22T10:10:09;20.70;;;9.23;;
6394;SDS011;3230;42.588;23.358;2023-06-22T10:12:36;20.97;;;8.60;;
6394;SDS011;3230;42.588;23.358;2023-06-22T10:15:02;19.83;;;8.73;;
6394;SDS011;3230;42.588;23.358;2023-06-22T10:17:28;19.53;;;8.30;;
6394;SDS011;3230;42.588;23.358;2023-06-22T10:19:53;21.70;;;9.03;;
6394;SDS011;3230;42.588;23.358;2023-06-22T10:22:18;21.60;;;8.87;;
6394;SDS011;3230;42.588;23.358;2023-06-22T10:24:44;22.13;;;8.67;;
6394;SDS011;3230;42.588;23.358;2023-06-22T10:27:10;19.67;;;8.40;;
6394;SDS011;3230;42.588;23.358;2023-06-22T10:29:37;19.63;;;8.60;;
6394;SDS011;3230;42.588;23.358;2023-06-22T10:32:03;23.40;;;8.77;;
6394;SDS011;3230;42.588;23.358;2023-06-22T10:34:28;20.37;;;9.33;;
6394;SDS011;3230;42.588;23.358;2023-06-22T10:36:54;21.20;;;8.30;;
6394;SDS011;3230;42.588;23.358;2023-06-22T10:39:19;21.07;;;8.90;;
6394;SDS011;3230;42.588;23.358;2023-06-22T10:41:45;22.07;;;9.37;;
6394;SDS011;3230;42.588;23.358;2023-06-22T10:44:10;20.43;;;9.00;;
6394;SDS011;3230;42.588;23.358;2023-06-22T10:46:37;21.83;;;8.80;;
6394;SDS011;3230;42.588;23.358;2023-06-22T10:49:02;21.33;;;8.93;;
6394;SDS011;3230;42.588;23.358;2023-06-22T10:51:28;29.37;;;11.00;;
6394;SDS011;3230;42.588;23.358;2023-06-22T10:53:53;21.37;;;9.20;;
6394;SDS011;3230;42.588;23.358;2023-06-22T10:56:18;22.13;;;9.50;;
6394;SDS011;3230;42.588;23.358;2023-06-22T10:58:44;18.00;;;8.00;;
6394;SDS011;3230;42.588;23.358;2023-06-22T11:01:10;22.33;;;8.80;;
6394;SDS011;3230;42.588;23.358;2023-06-22T11:03:35;19.90;;;8.43;;
6394;SDS011;3230;42.588;23.358;2023-06-22T11:06:01;19.50;;;7.93;;
6394;SDS011;3230;42.588;23.358;2023-06-22T11:08:26;22.00;;;8.47;;
6394;SDS011;3230;42.588;23.358;2023-06-22T11:10:51;20.00;;;9.27;;
6394;SDS011;3230;42.588;23.358;2023-06-22T11:13:17;20.97;;;9.10;;
6394;SDS011;3230;42.588;23.358;2023-06-22T11:15:43;20.60;;;9.10;;
6394;SDS011;3230;42.588;23.358;2023-06-22T11:18:08;19.07;;;8.00;;
6394;SDS011;3230;42.588;23.358;2023-06-22T11:20:34;22.03;;;9.07;;
6394;SDS011;3230;42.588;23.358;2023-06-22T11:23:03;19.30;;;8.17;;
6394;SDS011;3230;42.588;23.358;2023-06-22T11:25:32;20.70;;;8.13;;
6394;SDS011;3230;42.588;23.358;2023-06-22T11:28:00;19.07;;;8.30;;
6394;SDS011;3230;42.588;23.358;2023-06-22T11:30:28;21.60;;;8.80;;
6394;SDS011;3230;42.588;23.358;2023-06-22T11:32:54;25.00;;;8.97;;
6394;SDS011;3230;42.588;23.358;2023-06-22T11:35:19;21.00;;;9.40;;
6394;SDS011;3230;42.588;23.358;2023-06-22T11:37:45;21.50;;;9.17;;
6394;SDS011;3230;42.588;23.358;2023-06-22T11:40:10;19.63;;;8.50;;
6394;SDS011;3230;42.588;23.358;2023-06-22T11:42:36;20.40;;;8.50;;
6394;SDS011;3230;42.588;23.358;2023-06-22T11:45:02;20.60;;;8.37;;
6394;SDS011;3230;42.588;23.358;2023-06-22T11:47:29;19.10;;;8.60;;
6394;SDS011;3230;42.588;23.358;2023-06-22T11:49:55;20.67;;;8.57;;
6394;SDS011;3230;42.588;23.358;2023-06-22T11:52:21;19.70;;;8.73;;
6394;SDS011;3230;42.588;23.358;2023-06-22T11:54:46;21.20;;;9.20;;
6394;SDS011;3230;42.588;23.358;2023-06-22T11:57:11;20.93;;;8.10;;
6394;SDS011;3230;42.588;23.358;2023-06-22T11:59:37;20.97;;;9.07;;
6394;SDS011;3230;42.588;23.358;2023-06-22T12:02:02;21.00;;;8.93;;
6394;SDS011;3230;42.588;23.358;2023-06-22T12:04:29;21.47;;;8.77;;
6394;SDS011;3230;42.588;23.358;2023-06-22T12:06:54;20.93;;;8.90;;
6394;SDS011;3230;42.588;23.358;2023-06-22T12:09:20;19.50;;;8.73;;
6394;SDS011;3230;42.588;23.358;2023-06-22T12:11:45;20.57;;;8.80;;
6394;SDS011;3230;42.588;23.358;2023-06-22T12:14:10;20.53;;;9.23;;
6394;SDS011;3230;42.588;23.358;2023-06-22T12:16:36;17.83;;;8.00;;
6394;SDS011;3230;42.588;23.358;2023-06-22T12:19:01;19.30;;;9.17;;
6394;SDS011;3230;42.588;23.358;2023-06-22T12:21:27;30.13;;;9.90;;
6394;SDS011;3230;42.588;23.358;2023-06-22T12:23:54;22.23;;;9.00;;
6394;SDS011;3230;42.588;23.358;2023-06-22T12:26:19;21.40;;;9.40;;
6394;SDS011;3230;42.588;23.358;2023-06-22T12:28:44;19.33;;;9.30;;
6394;SDS011;3230;42.588;23.358;2023-06-22T12:31:10;13.90;;;9.67;;
6394;SDS011;3230;42.588;23.358;2023-06-22T12:33:36;12.60;;;10.03;;
6394;SDS011;3230;42.588;23.358;2023-06-22T12:36:01;12.40;;;9.63;;
6394;SDS011;3230;42.588;23.358;2023-06-22T12:38:27;15.00;;;9.50;;
6394;SDS011;3230;42.588;23.358;2023-06-22T12:40:52;13.80;;;10.73;;
6394;SDS011;3230;42.588;23.358;2023-06-22T12:43:18;13.00;;;9.20;;
6394;SDS011;3230;42.588;23.358;2023-06-22T12:45:43;15.87;;;10.40;;
6394;SDS011;3230;42.588;23.358;2023-06-22T12:48:08;28.90;;;11.33;;
6394;SDS011;3230;42.588;23.358;2023-06-22T12:50:34;17.80;;;11.03;;
6394;SDS011;3230;42.588;23.358;2023-06-22T12:52:59;25.40;;;11.80;;
6394;SDS011;3230;42.588;23.358;2023-06-22T12:55:27;20.75;;;12.15;;
6394;SDS011;3230;42.588;23.358;2023-06-22T12:57:52;34.07;;;14.23;;
6394;SDS011;3230;42.588;23.358;2023-06-22T13:00:18;24.03;;;12.27;;
6394;SDS011;3230;42.588;23.358;2023-06-22T13:02:44;26.93;;;13.23;;
6394;SDS011;3230;42.588;23.358;2023-06-22T13:05:10;20.00;;;12.40;;
6394;SDS011;3230;42.588;23.358;2023-06-22T13:07:35;23.97;;;12.83;;
6394;SDS011;3230;42.588;23.358;2023-06-22T13:10:01;23.40;;;12.67;;
6394;SDS011;3230;42.588;23.358;2023-06-22T13:12:26;22.33;;;11.13;;
6394;SDS011;3230;42.588;23.358;2023-06-22T13:14:52;25.07;;;11.90;;
6394;SDS011;3230;42.588;23.358;2023-06-22T13:17:17;21.97;;;12.20;;
6394;SDS011;3230;42.588;23.358;2023-06-22T13:19:42;26.67;;;12.90;;
6394;SDS011;3230;42.588;23.358;2023-06-22T13:24:56;22.77;;;12.07;;
6394;SDS011;3230;42.588;23.358;2023-06-22T13:27:23;23.77;;;11.70;;
6394;SDS011;3230;42.588;23.358;2023-06-22T13:29:49;24.77;;;11.97;;
6394;SDS011;3230;42.588;23.358;2023-06-22T13:32:14;22.50;;;12.00;;
6394;SDS011;3230;42.588;23.358;2023-06-22T13:34:39;26.47;;;12.73;;
6394;SDS011;3230;42.588;23.358;2023-06-22T13:37:05;23.43;;;12.90;;
6394;SDS011;3230;42.588;23.358;2023-06-22T13:39:31;21.90;;;11.47;;
6394;SDS011;3230;42.588;23.358;2023-06-22T13:41:57;21.30;;;10.20;;
6394;SDS011;3230;42.588;23.358;2023-06-22T13:44:23;23.00;;;12.53;;
6394;SDS011;3230;42.588;23.358;2023-06-22T13:46:52;23.60;;;11.70;;
6394;SDS011;3230;42.588;23.358;2023-06-22T13:49:18;24.00;;;11.70;;
6394;SDS011;3230;42.588;23.358;2023-06-22T13:51:43;23.90;;;12.20;;
6394;SDS011;3230;42.588;23.358;2023-06-22T13:54:08;22.33;;;11.60;;
6394;SDS011;3230;42.588;23.358;2023-06-22T13:56:34;33.53;;;12.30;;
6394;SDS011;3230;42.588;23.358;2023-06-22T13:58:59;30.93;;;13.80;;
6394;SDS011;3230;42.588;23.358;2023-06-22T14:01:25;25.80;;;12.60;;
6394;SDS011;3230;42.588;23.358;2023-06-22T14:03:50;27.60;;;13.67;;
6394;SDS011;3230;42.588;23.358;2023-06-22T14:06:16;29.67;;;12.17;;
6394;SDS011;3230;42.588;23.358;2023-06-22T14:08:41;22.90;;;11.20;;
6394;SDS011;3230;42.588;23.358;2023-06-22T14:11:07;31.73;;;11.77;;
6394;SDS011;3230;42.588;23.358;2023-06-22T14:13:32;23.87;;;11.00;;
6394;SDS011;3230;42.588;23.358;2023-06-22T14:15:57;25.67;;;11.40;;
6394;SDS011;3230;42.588;23.358;2023-06-22T14:18:23;22.20;;;10.83;;
6394;SDS011;3230;42.588;23.358;2023-06-22T14:20:49;27.50;;;11.73;;
6394;SDS011;3230;42.588;23.358;2023-06-22T14:23:14;27.07;;;12.77;;
6394;SDS011;3230;42.588;23.358;2023-06-22T14:25:40;28.60;;;13.43;;
6394;SDS011;3230;42.588;23.358;2023-06-22T14:28:05;25.33;;;10.93;;
6394;SDS011;3230;42.588;23.358;2023-06-22T14:30:31;24.77;;;11.77;;
6394;SDS011;3230;42.588;23.358;2023-06-22T14:32:56;27.07;;;14.40;;
6394;SDS011;3230;42.588;23.358;2023-06-22T14:35:22;29.70;;;13.20;;
6394;SDS011;3230;42.588;23.358;2023-06-22T14:37:49;27.20;;;12.10;;
6394;SDS011;3230;42.588;23.358;2023-06-22T14:40:14;25.30;;;11.70;;
6394;SDS011;3230;42.588;23.358;2023-06-22T14:42:40;24.13;;;11.80;;
6394;SDS011;3230;42.588;23.358;2023-06-22T14:45:05;26.93;;;12.10;;
6394;SDS011;3230;42.588;23.358;2023-06-22T14:47:31;25.20;;;11.60;;
6394;SDS011;3230;42.588;23.358;2023-06-22T14:49:57;25.93;;;11.50;;